Time;durP1;ratioP1;P1;durP2;ratioP2;P2;SDS_P1;SDS_P2;PMS_P1;PMS_P2;Temp;Humidity;BMP_temperature;BMP_pressure;BME280_temperature;BME280_humidity;BME280_pressure;Samples;Min_cycle;Max_cycle;Signal;HPM_P1;HPM_P2
2021/06/01 00:01:15;;;;;;;;;;;21.40;54.70;;;;;;5049481;28;20300;-72
2021/06/01 00:03:42;;;;;;;;;;;21.40;54.60;;;;;;5044690;28;19958;-72
2021/06/01 00:06:08;;;;;;;;;;;21.40;54.60;;;;;;5051412;28;19932;-72
2021/06/01 00:08:34;;;;;;;;;;;21.40;54.60;;;;;;5036449;28;19928;-71
2021/06/01 00:11:00;;;;;;;;;;;21.40;54.60;;;;;;5045527;28;19929;-71
2021/06/01 00:13:26;;;;;;;;;;;21.40;54.70;;;;;;5044600;28;19936;-71
2021/06/01 00:15:52;;;;;;;;;;;21.40;54.60;;;;;;5048679;28;19932;-70
2021/06/01 00:18:18;;;;;;;;;;;21.30;54.70;;;;;;5048205;28;19932;-71
2021/06/01 00:20:46;;;;;;;;;;;21.30;54.70;;;;;;5048370;28;19952;-71
2021/06/01 00:23:12;;;;;;;;;;;21.30;54.80;;;;;;5017270;28;19935;-70
2021/06/01 00:25:38;;;;;;;;;;;21.20;54.80;;;;;;5047683;28;19928;-72
2021/06/01 00:28:04;;;;;;;;;;;21.20;54.80;;;;;;5046869;28;19928;-71
2021/06/01 00:30:30;;;;;;;;;;;21.20;54.90;;;;;;5047454;28;19936;-71
2021/06/01 00:32:56;;;;;;;;;;;21.20;54.90;;;;;;5046647;28;20301;-70
2021/06/01 00:35:22;;;;;;;;;;;21.20;55.00;;;;;;5047291;28;19928;-70
2021/06/01 00:37:49;;;;;;;;;;;21.20;55.00;;;;;;5046336;28;20004;-70
2021/06/01 00:40:15;;;;;;;;;;;21.20;54.90;;;;;;5034029;28;19929;-70
2021/06/01 00:42:41;;;;;;;;;;;21.20;54.90;;;;;;5030000;28;19933;-70
2021/06/01 00:45:08;;;;;;;;;;;21.20;54.80;;;;;;5037786;28;19991;-70
2021/06/01 00:47:34;;;;;;;;;;;21.30;54.80;;;;;;5036680;28;19928;-71
2021/06/01 00:50:00;;;;;;;;;;;21.30;54.90;;;;;;5044663;28;19928;-70
2021/06/01 00:52:26;;;;;;;;;;;21.20;54.70;;;;;;5047944;28;19933;-75
2021/06/01 00:54:53;;;;;;;;;;;21.20;54.60;;;;;;5046923;28;20466;-70
2021/06/01 00:57:19;;;;;;;;;;;21.20;54.70;;;;;;5044801;28;20305;-71
2021/06/01 00:59:45;;;;;;;;;;;21.20;54.80;;;;;;5033215;28;19962;-71
2021/06/01 01:02:11;;;;;;;;;;;21.20;54.70;;;;;;5034817;28;19929;-71
2021/06/01 01:04:37;;;;;;;;;;;21.20;54.70;;;;;;5043246;28;19935;-71
2021/06/01 01:07:15;;;;;;;;;;;21.20;54.70;;;;;;5043577;28;20412;-71
2021/06/01 01:09:41;;;;;;;;;;;21.20;54.80;;;;;;5047142;28;20031;-70
2021/06/01 01:12:11;;;;;;;;;;;21.20;54.70;;;;;;5045424;28;20978;-71
2021/06/01 01:14:38;;;;;;;;;;;21.20;55.00;;;;;;5046624;28;19933;-70
2021/06/01 01:17:05;;;;;;;;;;;21.20;54.90;;;;;;5046976;28;19939;-71
2021/06/01 01:19:34;;;;;;;;;;;21.20;54.80;;;;;;5045817;28;20203;-70
2021/06/01 01:22:00;;;;;;;;;;;21.20;54.70;;;;;;5044097;28;20346;-70
2021/06/01 01:24:30;;;;;;;;;;;21.20;54.70;;;;;;5046018;28;20523;-71
2021/06/01 01:26:57;;;;;;;;;;;21.20;54.60;;;;;;5034822;28;20674;-71
2021/06/01 01:29:32;;;;;;;;;;;21.20;54.50;;;;;;5044930;28;19928;-71
2021/06/01 01:31:59;;;;;;;;;;;21.20;54.50;;;;;;5045017;28;19935;-71
2021/06/01 01:34:26;;;;;;;;;;;21.20;54.60;;;;;;5045975;28;19930;-71
2021/06/01 01:36:52;;;;;;;;;;;21.20;54.60;;;;;;5044263;28;19936;-70
2021/06/01 01:39:18;;;;;;;;;;;21.20;54.60;;;;;;5045287;28;19974;-71
2021/06/01 01:41:44;;;;;;;;;;;21.20;54.60;;;;;;5046614;28;19952;-71
2021/06/01 01:44:12;;;;;;;;;;;21.20;54.40;;;;;;5047960;28;20308;-71
2021/06/01 01:46:53;;;;;;;;;;;21.20;54.40;;;;;;5051819;28;19928;-72
2021/06/01 01:49:19;;;;;;;;;;;21.20;54.40;;;;;;5050096;28;19937;-73
2021/06/01 01:51:47;;;;;;;;;;;21.20;54.40;;;;;;5047808;28;21145;-71
2021/06/01 01:54:13;;;;;;;;;;;21.20;54.30;;;;;;5022458;28;19932;-71
2021/06/01 01:56:41;;;;;;;;;;;21.30;54.30;;;;;;5048260;28;19929;-70
2021/06/01 01:59:08;;;;;;;;;;;21.30;54.20;;;;;;5047718;28;19940;-71
2021/06/01 02:01:35;;;;;;;;;;;21.30;54.20;;;;;;5050240;28;19933;-71
2021/06/01 02:04:01;;;;;;;;;;;21.20;54.10;;;;;;5048928;28;19951;-70
2021/06/01 02:06:27;;;;;;;;;;;21.20;54.10;;;;;;5050524;28;19928;-71
2021/06/01 02:08:54;;;;;;;;;;;21.20;54.10;;;;;;5048781;28;19936;-70
2021/06/01 02:11:21;;;;;;;;;;;21.20;54.20;;;;;;5048504;28;19932;-72
2021/06/01 02:13:49;;;;;;;;;;;21.20;54.20;;;;;;5049226;28;19928;-71
2021/06/01 02:16:15;;;;;;;;;;;21.20;54.40;;;;;;5049866;28;20373;-71
2021/06/01 02:18:41;;;;;;;;;;;21.10;54.30;;;;;;5050265;28;19936;-72
2021/06/01 02:21:08;;;;;;;;;;;21.20;54.60;;;;;;5051709;28;19936;-71
2021/06/01 02:23:48;;;;;;;;;;;21.20;54.30;;;;;;5050501;28;20031;-71
2021/06/01 02:26:32;;;;;;;;;;;21.10;54.60;;;;;;5039484;28;19921;-71
2021/06/01 02:29:01;;;;;;;;;;;21.10;54.60;;;;;;5025006;28;19929;-71
2021/06/01 02:31:27;;;;;;;;;;;21.10;54.50;;;;;;5034176;28;20432;-71
2021/06/01 02:33:53;;;;;;;;;;;21.10;54.40;;;;;;5047011;28;20384;-71
2021/06/01 02:36:19;;;;;;;;;;;21.20;54.40;;;;;;5042024;28;19939;-71
2021/06/01 02:38:45;;;;;;;;;;;21.20;54.30;;;;;;5045828;28;20660;-71
2021/06/01 02:41:11;;;;;;;;;;;21.20;54.30;;;;;;5031645;28;19936;-70
2021/06/01 02:43:37;;;;;;;;;;;21.20;54.30;;;;;;5037165;28;20389;-72
2021/06/01 02:46:05;;;;;;;;;;;21.20;54.30;;;;;;5049163;28;19928;-70
2021/06/01 02:48:31;;;;;;;;;;;21.20;54.40;;;;;;5038979;28;19932;-73
2021/06/01 02:50:58;;;;;;;;;;;21.10;54.40;;;;;;5051022;28;19999;-71
2021/06/01 02:53:24;;;;;;;;;;;21.10;54.60;;;;;;5049333;28;20293;-70
2021/06/01 02:55:50;;;;;;;;;;;21.10;54.40;;;;;;5049583;28;20693;-71
2021/06/01 02:58:16;;;;;;;;;;;21.10;54.80;;;;;;5050294;28;19943;-72
2021/06/01 03:00:42;;;;;;;;;;;21.10;54.40;;;;;;5047463;28;19998;-70
2021/06/01 03:03:10;;;;;;;;;;;21.10;54.40;;;;;;5048048;28;19929;-70
2021/06/01 03:05:36;;;;;;;;;;;21.10;54.70;;;;;;5048354;28;19935;-72
2021/06/01 03:08:26;;;;;;;;;;;21.10;54.70;;;;;;5049936;28;20391;-72
2021/06/01 03:10:53;;;;;;;;;;;21.10;54.50;;;;;;5042914;28;19955;-72
2021/06/01 03:13:19;;;;;;;;;;;21.10;54.40;;;;;;5046136;28;19928;-71
2021/06/01 03:15:45;;;;;;;;;;;21.20;54.20;;;;;;5046176;28;20018;-72
2021/06/01 03:18:13;;;;;;;;;;;21.20;53.90;;;;;;5039894;28;19929;-72
2021/06/01 03:20:39;;;;;;;;;;;21.20;53.80;;;;;;5051144;28;19929;-71
2021/06/01 03:23:05;;;;;;;;;;;21.30;53.80;;;;;;5048965;28;19928;-72
2021/06/01 03:25:31;;;;;;;;;;;21.30;53.60;;;;;;5048844;28;20389;-71
2021/06/01 03:27:57;;;;;;;;;;;21.30;53.50;;;;;;5048648;28;19928;-71
2021/06/01 03:30:23;;;;;;;;;;;21.30;53.60;;;;;;5049958;28;19928;-70
2021/06/01 03:32:49;;;;;;;;;;;21.30;53.60;;;;;;5045240;28;20458;-70
2021/06/01 03:35:16;;;;;;;;;;;21.30;53.60;;;;;;5051345;28;19928;-70
2021/06/01 03:37:42;;;;;;;;;;;21.30;53.50;;;;;;5019272;28;19932;-71
2021/06/01 03:40:09;;;;;;;;;;;21.30;53.60;;;;;;5047731;28;19994;-72
2021/06/01 03:42:35;;;;;;;;;;;21.30;53.50;;;;;;5048933;28;19929;-72
2021/06/01 03:45:01;;;;;;;;;;;21.30;53.50;;;;;;5048191;28;19977;-74
2021/06/01 03:47:27;;;;;;;;;;;21.30;53.50;;;;;;5049941;28;19928;-71
2021/06/01 03:49:54;;;;;;;;;;;21.30;53.50;;;;;;5048360;28;19935;-72
2021/06/01 03:52:22;;;;;;;;;;;21.30;53.50;;;;;;5020255;28;20043;-71
2021/06/01 03:54:48;;;;;;;;;;;21.30;53.50;;;;;;5048848;28;19940;-71
2021/06/01 03:57:14;;;;;;;;;;;21.30;53.50;;;;;;5045817;28;19932;-72
2021/06/01 03:59:40;;;;;;;;;;;21.30;53.60;;;;;;5039498;28;19925;-73
2021/06/01 04:02:06;;;;;;;;;;;21.30;53.60;;;;;;5036489;28;20511;-71
2021/06/01 04:04:32;;;;;;;;;;;21.30;53.60;;;;;;5048136;28;19932;-70
2021/06/01 04:06:59;;;;;;;;;;;21.30;53.80;;;;;;5044204;28;20474;-70
2021/06/01 04:09:26;;;;;;;;;;;21.30;53.70;;;;;;5038165;28;19928;-71
2021/06/01 04:11:52;;;;;;;;;;;21.30;53.80;;;;;;5047974;28;19928;-72
2021/06/01 04:14:19;;;;;;;;;;;21.20;53.80;;;;;;5019400;28;19928;-71
2021/06/01 04:16:45;;;;;;;;;;;21.20;53.70;;;;;;5032604;28;19936;-71
2021/06/01 04:19:11;;;;;;;;;;;21.20;53.80;;;;;;5045665;28;19928;-72
2021/06/01 04:21:37;;;;;;;;;;;21.20;53.90;;;;;;5038352;28;20404;-70
2021/06/01 04:24:04;;;;;;;;;;;21.20;53.90;;;;;;5044878;28;20384;-72
2021/06/01 04:26:31;;;;;;;;;;;21.20;53.90;;;;;;5047822;28;20296;-71
2021/06/01 04:28:57;;;;;;;;;;;21.30;53.90;;;;;;5048283;28;19939;-71
2021/06/01 04:31:24;;;;;;;;;;;21.30;53.80;;;;;;5042004;28;19933;-71
2021/06/01 04:33:50;;;;;;;;;;;21.30;53.80;;;;;;5044705;28;19929;-71
2021/06/01 04:36:16;;;;;;;;;;;21.30;53.70;;;;;;5036558;28;19929;-71
2021/06/01 04:38:42;;;;;;;;;;;21.40;53.70;;;;;;5023069;28;20951;-72
2021/06/01 04:41:08;;;;;;;;;;;21.40;53.70;;;;;;5044567;28;19936;-70
2021/06/01 04:43:36;;;;;;;;;;;21.40;53.80;;;;;;5044154;28;19929;-72
2021/06/01 04:46:02;;;;;;;;;;;21.40;53.90;;;;;;5045455;28;19925;-71
2021/06/01 04:48:28;;;;;;;;;;;21.30;53.80;;;;;;5048763;28;20276;-72
2021/06/01 04:50:54;;;;;;;;;;;21.30;53.90;;;;;;5048033;28;20579;-71
2021/06/01 04:53:20;;;;;;;;;;;21.30;54.10;;;;;;5048539;28;19936;-71
2021/06/01 04:55:46;;;;;;;;;;;21.30;54.20;;;;;;5047216;28;19925;-72
2021/06/01 04:58:12;;;;;;;;;;;21.20;54.20;;;;;;5030916;28;19987;-72
2021/06/01 05:00:39;;;;;;;;;;;21.30;54.20;;;;;;5042446;28;19936;-72
2021/06/01 05:03:06;;;;;;;;;;;21.30;54.30;;;;;;5042071;28;19928;-72
2021/06/01 05:05:32;;;;;;;;;;;21.30;54.30;;;;;;5045051;28;20351;-71
2021/06/01 05:07:58;;;;;;;;;;;21.30;54.30;;;;;;5044409;28;20289;-71
2021/06/01 05:10:24;;;;;;;;;;;21.30;54.40;;;;;;5049212;28;19951;-71
2021/06/01 05:12:50;;;;;;;;;;;21.30;54.50;;;;;;5047911;28;19933;-71
2021/06/01 05:15:17;;;;;;;;;;;21.30;54.50;;;;;;5046431;28;19936;-71
2021/06/01 05:17:44;;;;;;;;;;;21.30;54.60;;;;;;5046946;28;19936;-70
2021/06/01 05:20:11;;;;;;;;;;;21.30;54.70;;;;;;5036802;28;20297;-72
2021/06/01 05:22:37;;;;;;;;;;;21.30;55.40;;;;;;5047604;28;19935;-72
2021/06/01 05:25:03;;;;;;;;;;;21.30;55.60;;;;;;5044224;28;19933;-72
2021/06/01 05:27:29;;;;;;;;;;;21.30;56.30;;;;;;5043742;28;19931;-70
2021/06/01 05:29:58;;;;;;;;;;;21.30;56.30;;;;;;5047114;28;19983;-73
2021/06/01 05:35:22;;;;;;;;;;;21.30;56.30;;;;;;4956514;28;20544;-71
2021/06/01 05:37:48;;;;;;;;;;;21.20;56.20;;;;;;5011046;28;19928;-71
2021/06/01 05:40:14;;;;;;;;;;;21.20;56.20;;;;;;5044624;28;19929;-70
2021/06/01 05:42:40;;;;;;;;;;;21.20;56.70;;;;;;5016421;28;19932;-72
2021/06/01 05:45:07;;;;;;;;;;;21.10;57.00;;;;;;5038198;28;20887;-71
2021/06/01 05:47:33;;;;;;;;;;;21.10;57.30;;;;;;5037027;28;19951;-71
2021/06/01 05:49:59;;;;;;;;;;;21.10;57.60;;;;;;5037660;28;20405;-70
2021/06/01 05:52:26;;;;;;;;;;;21.10;58.00;;;;;;5040750;28;19928;-73
2021/06/01 05:54:52;;;;;;;;;;;21.00;58.20;;;;;;5044707;28;19925;-71
2021/06/01 05:57:18;;;;;;;;;;;21.00;58.40;;;;;;5042454;28;19936;-69
2021/06/01 05:59:46;;;;;;;;;;;21.00;58.60;;;;;;5043195;28;19928;-73
2021/06/01 06:02:12;;;;;;;;;;;21.00;58.90;;;;;;5040998;28;19977;-72
2021/06/01 06:04:38;;;;;;;;;;;21.00;59.00;;;;;;5042795;28;19939;-71
2021/06/01 06:07:04;;;;;;;;;;;21.00;59.00;;;;;;5030454;28;19937;-71
2021/06/01 06:09:31;;;;;;;;;;;21.00;59.10;;;;;;5035558;28;20623;-72
2021/06/01 06:11:58;;;;;;;;;;;21.00;59.60;;;;;;5042864;28;20294;-71
2021/06/01 06:14:24;;;;;;;;;;;21.00;59.50;;;;;;5032741;28;19932;-71
2021/06/01 06:16:50;;;;;;;;;;;21.00;59.50;;;;;;5043640;28;19959;-72
2021/06/01 06:19:16;;;;;;;;;;;21.00;59.60;;;;;;5030670;28;19928;-71
2021/06/01 06:21:42;;;;;;;;;;;21.00;59.80;;;;;;5021001;28;20310;-72
2021/06/01 06:24:08;;;;;;;;;;;21.00;59.70;;;;;;5033090;28;19944;-72
2021/06/01 06:26:36;;;;;;;;;;;21.00;59.80;;;;;;5025359;28;19928;-71
2021/06/01 06:29:02;;;;;;;;;;;21.00;60.00;;;;;;5043639;28;19986;-71
2021/06/01 06:31:28;;;;;;;;;;;21.00;60.00;;;;;;5046125;28;19933;-70
2021/06/01 06:33:54;;;;;;;;;;;21.00;60.10;;;;;;5044705;28;19996;-71
2021/06/01 06:36:20;;;;;;;;;;;21.00;60.10;;;;;;5016432;28;20716;-71
2021/06/01 06:38:47;;;;;;;;;;;21.00;60.20;;;;;;5044067;28;19928;-70
2021/06/01 06:41:13;;;;;;;;;;;21.00;60.30;;;;;;5041696;28;19947;-70
2021/06/01 06:43:43;;;;;;;;;;;21.00;60.40;;;;;;5050087;28;20046;-72
2021/06/01 06:46:13;;;;;;;;;;;21.00;60.40;;;;;;5044156;28;19959;-69
2021/06/01 06:48:39;;;;;;;;;;;21.00;60.60;;;;;;5041971;28;19928;-71
2021/06/01 06:51:12;;;;;;;;;;;21.00;60.40;;;;;;5041942;28;19987;-70
2021/06/01 06:53:41;;;;;;;;;;;21.00;60.70;;;;;;5045877;28;19995;-70
2021/06/01 06:56:07;;;;;;;;;;;21.00;60.60;;;;;;5047571;28;20462;-71
2021/06/01 06:58:33;;;;;;;;;;;21.00;61.60;;;;;;5044617;28;19932;-70
2021/06/01 07:01:00;;;;;;;;;;;21.00;61.00;;;;;;5044842;28;19929;-70
2021/06/01 07:03:26;;;;;;;;;;;21.00;60.90;;;;;;5049313;28;20394;-70
2021/06/01 07:05:52;;;;;;;;;;;21.00;60.60;;;;;;5047440;28;19929;-71
2021/06/01 07:08:18;;;;;;;;;;;21.00;60.40;;;;;;5048060;28;19983;-73
2021/06/01 07:10:44;;;;;;;;;;;21.10;60.50;;;;;;5043949;28;20947;-72
2021/06/01 07:13:12;;;;;;;;;;;21.10;60.40;;;;;;5023001;28;19929;-71
2021/06/01 07:15:42;;;;;;;;;;;21.10;60.30;;;;;;5037081;28;20395;-69
2021/06/01 07:18:09;;;;;;;;;;;21.10;60.30;;;;;;5042365;28;19928;-71
2021/06/01 07:20:35;;;;;;;;;;;21.10;60.20;;;;;;5039621;28;20400;-70
2021/06/01 07:23:02;;;;;;;;;;;21.10;60.40;;;;;;5035691;28;19995;-68
2021/06/01 07:25:28;;;;;;;;;;;21.10;60.30;;;;;;5025696;28;19941;-69
2021/06/01 07:27:54;;;;;;;;;;;21.10;60.50;;;;;;5038391;28;19932;-70
2021/06/01 07:30:20;;;;;;;;;;;21.10;60.50;;;;;;5041114;28;20360;-69
2021/06/01 07:32:46;;;;;;;;;;;21.10;60.50;;;;;;5047901;28;19936;-69
2021/06/01 07:35:14;;;;;;;;;;;21.10;60.70;;;;;;5042888;28;19933;-69
2021/06/01 07:37:40;;;;;;;;;;;21.10;60.80;;;;;;5044747;28;20339;-69
2021/06/01 07:40:06;;;;;;;;;;;21.10;60.80;;;;;;5039924;28;19933;-71
2021/06/01 07:42:32;;;;;;;;;;;21.10;60.80;;;;;;5048948;28;20462;-70
2021/06/01 07:44:58;;;;;;;;;;;21.10;60.60;;;;;;5046147;28;19936;-70
2021/06/01 07:47:25;;;;;;;;;;;21.10;60.70;;;;;;5025949;28;19928;-71
2021/06/01 07:49:51;;;;;;;;;;;21.10;60.80;;;;;;5035655;28;19987;-72
2021/06/01 07:52:18;;;;;;;;;;;21.10;60.80;;;;;;5043901;28;19935;-71
2021/06/01 07:54:44;;;;;;;;;;;21.10;60.80;;;;;;5040465;28;19928;-71
2021/06/01 07:57:10;;;;;;;;;;;21.10;61.00;;;;;;5039470;28;19936;-70
2021/06/01 07:59:36;;;;;;;;;;;21.10;60.80;;;;;;5043191;28;19935;-70
2021/06/01 08:02:03;;;;;;;;;;;21.10;60.90;;;;;;5045480;28;20303;-70
2021/06/01 08:04:29;;;;;;;;;;;21.10;61.30;;;;;;5044467;28;20385;-70
2021/06/01 08:07:00;;;;;;;;;;;21.10;61.00;;;;;;5034984;28;19955;-71
2021/06/01 08:09:27;;;;;;;;;;;21.10;61.30;;;;;;5038480;28;20003;-71
2021/06/01 08:11:53;;;;;;;;;;;21.10;61.30;;;;;;5046798;28;19958;-69
2021/06/01 08:14:19;;;;;;;;;;;21.10;61.30;;;;;;5043072;28;19932;-70
2021/06/01 08:16:46;;;;;;;;;;;21.10;61.40;;;;;;5042337;28;20014;-69
2021/06/01 08:19:14;;;;;;;;;;;21.10;61.30;;;;;;5040389;28;20127;-69
2021/06/01 08:21:48;;;;;;;;;;;21.10;61.30;;;;;;5042842;28;19936;-71
2021/06/01 08:24:14;;;;;;;;;;;21.10;61.30;;;;;;5041469;28;19971;-70
2021/06/01 08:26:42;;;;;;;;;;;21.10;61.30;;;;;;5038522;28;19998;-71
2021/06/01 08:29:08;;;;;;;;;;;21.10;61.20;;;;;;5041270;28;19978;-70
2021/06/01 08:31:34;;;;;;;;;;;21.10;61.40;;;;;;5034407;28;19941;-69
2021/06/01 08:34:00;;;;;;;;;;;21.10;61.60;;;;;;5017979;28;19944;-70
2021/06/01 08:36:27;;;;;;;;;;;21.10;62.40;;;;;;5029345;28;20011;-71
2021/06/01 08:38:53;;;;;;;;;;;21.20;62.40;;;;;;5033657;28;19929;-72
2021/06/01 08:41:19;;;;;;;;;;;21.20;62.30;;;;;;5029437;28;19933;-69
2021/06/01 08:43:47;;;;;;;;;;;21.20;62.00;;;;;;5025754;28;19935;-70
2021/06/01 08:46:13;;;;;;;;;;;21.30;62.40;;;;;;5043017;28;20497;-70
2021/06/01 08:48:40;;;;;;;;;;;21.30;61.30;;;;;;5038856;28;19940;-69
2021/06/01 08:51:06;;;;;;;;;;;21.20;61.30;;;;;;5037989;28;19929;-69
2021/06/01 08:53:33;;;;;;;;;;;21.20;61.20;;;;;;5037100;28;19980;-71
2021/06/01 08:55:59;;;;;;;;;;;21.20;61.70;;;;;;5039718;28;20458;-69
2021/06/01 08:58:25;;;;;;;;;;;21.20;62.00;;;;;;5043006;28;19975;-73
2021/06/01 09:00:52;;;;;;;;;;;21.30;62.20;;;;;;5039684;28;20645;-70
2021/06/01 09:03:20;;;;;;;;;;;21.30;61.70;;;;;;5041128;28;20028;-69
2021/06/01 09:06:00;;;;;;;;;;;21.30;61.40;;;;;;5016009;28;20030;-72
2021/06/01 09:08:36;;;;;;;;;;;21.30;61.70;;;;;;5038968;28;19928;-70
2021/06/01 09:11:09;;;;;;;;;;;21.30;60.90;;;;;;5038433;28;19940;-71
2021/06/01 09:13:54;;;;;;;;;;;21.30;61.10;;;;;;5041641;28;19929;-70
2021/06/01 09:21:58;;;;;;;;;;;21.30;61.10;;;;;;5040912;28;19928;-71
2021/06/01 09:24:24;;;;;;;;;;;21.30;61.10;;;;;;5043786;28;19982;-70
2021/06/01 09:27:00;;;;;;;;;;;21.30;61.20;;;;;;5041144;28;20184;-71
2021/06/01 09:29:26;;;;;;;;;;;21.20;60.80;;;;;;5029235;28;19968;-70
2021/06/01 09:32:06;;;;;;;;;;;21.20;60.90;;;;;;5039774;28;19929;-70
2021/06/01 09:34:36;;;;;;;;;;;21.30;61.20;;;;;;5041320;28;19947;-69
2021/06/01 09:37:18;;;;;;;;;;;21.20;60.70;;;;;;5037114;28;20019;-72
2021/06/01 09:39:44;;;;;;;;;;;21.20;61.60;;;;;;5035382;28;19929;-69
2021/06/01 09:42:25;;;;;;;;;;;21.20;61.00;;;;;;5042871;28;20445;-72
2021/06/01 09:45:01;;;;;;;;;;;21.30;61.20;;;;;;5041397;28;19929;-70
2021/06/01 09:47:41;;;;;;;;;;;21.30;61.50;;;;;;5041850;28;19952;-71
2021/06/01 09:50:08;;;;;;;;;;;21.30;61.80;;;;;;5035495;28;19933;-70
2021/06/01 09:52:44;;;;;;;;;;;21.30;60.40;;;;;;5045472;28;19929;-69
2021/06/01 09:55:13;;;;;;;;;;;21.30;60.60;;;;;;5036498;28;19932;-70
2021/06/01 09:57:42;;;;;;;;;;;21.30;60.10;;;;;;5039666;28;19933;-70
2021/06/01 10:00:10;;;;;;;;;;;21.30;60.30;;;;;;5042996;28;19933;-71
2021/06/01 10:02:36;;;;;;;;;;;21.30;61.50;;;;;;5034210;28;20013;-71
2021/06/01 10:05:08;;;;;;;;;;;21.30;61.50;;;;;;5038081;28;19940;-70
2021/06/01 10:07:34;;;;;;;;;;;21.30;61.30;;;;;;5045442;28;20028;-71
2021/06/01 10:10:00;;;;;;;;;;;21.40;60.90;;;;;;5039516;28;20419;-70
2021/06/01 10:12:26;;;;;;;;;;;21.40;60.70;;;;;;5041107;28;19924;-71
2021/06/01 10:14:52;;;;;;;;;;;21.40;60.80;;;;;;5037576;28;19933;-71
2021/06/01 10:17:18;;;;;;;;;;;21.40;61.10;;;;;;5046440;28;21204;-71
2021/06/01 10:19:44;;;;;;;;;;;21.40;60.60;;;;;;5024046;28;20374;-70
2021/06/01 10:22:12;;;;;;;;;;;21.40;60.40;;;;;;5046125;28;19985;-71
2021/06/01 10:24:38;;;;;;;;;;;21.30;59.80;;;;;;5045709;28;19928;-69
2021/06/01 10:27:07;;;;;;;;;;;21.30;60.60;;;;;;5047137;28;19962;-70
2021/06/01 10:29:33;;;;;;;;;;;21.30;60.70;;;;;;5033053;28;19942;-72
2021/06/01 10:31:59;;;;;;;;;;;21.30;61.00;;;;;;5046871;28;19929;-69
2021/06/01 10:34:25;;;;;;;;;;;21.30;60.30;;;;;;5045654;28;19929;-70
2021/06/01 10:42:34;;;;;;;;;;;21.30;60.40;;;;;;5037682;28;20044;-73
2021/06/01 10:50:36;;;;;;;;;;;21.30;60.40;;;;;;5006080;28;19969;-69
2021/06/01 10:53:05;;;;;;;;;;;21.30;61.10;;;;;;5041117;28;19928;-71
2021/06/01 10:55:46;;;;;;;;;;;21.30;61.60;;;;;;5029533;28;20439;-69
2021/06/01 10:58:14;;;;;;;;;;;21.30;60.70;;;;;;5038762;28;19932;-69
2021/06/01 11:03:24;;;;;;;;;;;21.30;60.70;;;;;;5042205;28;19927;-69
2021/06/01 11:06:09;;;;;;;;;;;21.30;60.80;;;;;;5043796;28;20551;-69
2021/06/01 11:08:40;;;;;;;;;;;21.30;60.70;;;;;;5041314;28;20323;-70
2021/06/01 11:11:25;;;;;;;;;;;21.30;60.90;;;;;;5037503;28;19972;-71
2021/06/01 11:13:54;;;;;;;;;;;21.30;61.10;;;;;;5028223;28;25476;-71
2021/06/01 11:16:20;;;;;;;;;;;21.30;61.10;;;;;;5039702;28;20054;-71
2021/06/01 11:18:51;;;;;;;;;;;21.30;62.30;;;;;;5047313;28;19936;-71
2021/06/01 11:21:30;;;;;;;;;;;21.30;61.50;;;;;;5019205;28;19940;-70
2021/06/01 11:35:38;;;;;;;;;;;21.30;60.90;;;;;;5008848;28;19943;-70
2021/06/01 11:38:09;;;;;;;;;;;21.30;60.50;;;;;;5042263;28;20002;-70
2021/06/01 11:40:40;;;;;;;;;;;21.30;60.90;;;;;;5036661;28;20012;-70
2021/06/01 11:43:07;;;;;;;;;;;21.30;61.10;;;;;;5040141;28;20118;-70
2021/06/01 11:45:40;;;;;;;;;;;21.30;61.00;;;;;;5038214;28;19976;-69
2021/06/01 11:48:12;;;;;;;;;;;21.30;61.00;;;;;;5042916;28;19929;-69
2021/06/01 11:53:22;;;;;;;;;;;21.30;61.00;;;;;;5037859;28;20047;-70
2021/06/01 11:55:50;;;;;;;;;;;21.30;60.90;;;;;;5044276;28;19929;-71
2021/06/01 12:03:52;;;;;;;;;;;21.30;61.20;;;;;;5042197;28;19944;-69
2021/06/01 12:11:58;;;;;;;;;;;21.30;61.10;;;;;;5021124;28;19928;-69
2021/06/01 12:17:07;;;;;;;;;;;21.30;61.10;;;;;;5004735;28;19928;-71
2021/06/01 12:17:16;;;;;;;;;;;21.30;61.10;;;;;;5031539;28;19920;-73
2021/06/01 12:19:42;;;;;;;;;;;21.30;61.10;;;;;;5039864;28;19933;-70
2021/06/01 12:22:08;;;;;;;;;;;21.30;61.10;;;;;;5035664;28;19928;-70
2021/06/01 12:24:37;;;;;;;;;;;21.30;61.20;;;;;;5038077;28;19940;-70
2021/06/01 12:27:14;;;;;;;;;;;21.30;61.10;;;;;;5036050;28;19939;-71
2021/06/01 12:32:27;;;;;;;;;;;21.30;61.30;;;;;;5015104;28;20007;-69
2021/06/01 12:43:21;;;;;;;;;;;21.30;61.20;;;;;;5036221;28;20558;-71
2021/06/01 13:14:09;;;;;;;;;;;21.30;60.60;;;;;;5045535;28;19928;-71
2021/06/01 13:19:28;;;;;;;;;;;21.30;60.70;;;;;;5044436;28;20028;-69
2021/06/01 13:22:02;;;;;;;;;;;21.30;60.70;;;;;;5004208;28;19983;-71
2021/06/01 13:30:54;;;;;;;;;;;21.30;60.90;;;;;;4994850;28;19966;-71
2021/06/01 13:36:29;;;;;;;;;;;21.30;60.90;;;;;;4978051;28;19928;-70
2021/06/01 13:38:59;;;;;;;;;;;21.30;61.00;;;;;;5003724;28;19936;-71
2021/06/01 13:47:01;;;;;;;;;;;21.30;60.70;;;;;;5038229;28;20929;-70
2021/06/01 13:49:34;;;;;;;;;;;21.30;60.70;;;;;;5040354;28;19933;-71
2021/06/01 13:52:29;;;;;;;;;;;21.30;60.70;;;;;;5043251;28;19928;-70
2021/06/01 13:55:08;;;;;;;;;;;21.30;60.60;;;;;;5014574;28;19932;-71
2021/06/01 13:57:38;;;;;;;;;;;21.30;60.60;;;;;;5044449;28;20282;-71
2021/06/01 14:00:15;;;;;;;;;;;21.30;60.70;;;;;;5042709;28;20019;-71
2021/06/01 14:28:15;;;;;;;;;;;21.30;60.70;;;;;;5039088;28;20308;-70
2021/06/01 14:36:23;;;;;;;;;;;21.30;60.50;;;;;;5043720;28;19970;-69
2021/06/01 14:56:06;;;;;;;;;;;21.40;60.40;;;;;;5045492;28;20042;-72
2021/06/01 15:28:47;;;;;;;;;;;21.60;61.10;;;;;;5045519;28;19953;-74
2021/06/01 15:47:48;;;;;;;;;;;21.60;63.90;;;;;;5043491;28;20314;-73
2021/06/01 15:50:24;;;;;;;;;;;21.50;63.60;;;;;;5042299;28;20029;-72
2021/06/01 16:12:42;;;;;;;;;;;21.70;59.00;;;;;;5036166;28;19961;-74
2021/06/01 16:15:23;;;;;;;;;;;21.70;63.20;;;;;;5044994;28;20463;-75
2021/06/01 16:23:26;;;;;;;;;;;21.80;59.00;;;;;;5041750;28;20607;-76
2021/06/01 16:31:39;;;;;;;;;;;22.40;66.00;;;;;;4967526;28;20549;-69
2021/06/01 16:42:28;;;;;;;;;;;22.30;61.50;;;;;;5041518;28;19966;-71
2021/06/01 17:04:12;;;;;;;;;;;21.80;60.30;;;;;;5036722;28;19928;-71
2021/06/01 17:06:43;;;;;;;;;;;21.80;60.30;;;;;;5042823;28;20320;-71
2021/06/01 17:11:55;;;;;;;;;;;21.80;60.00;;;;;;5006862;28;20703;-71
2021/06/01 17:14:22;;;;;;;;;;;21.80;60.00;;;;;;5044256;28;20021;-72
2021/06/01 17:16:49;;;;;;;;;;;21.80;60.00;;;;;;5042913;28;20033;-72
2021/06/01 17:19:44;;;;;;;;;;;21.70;59.80;;;;;;5042385;28;19972;-74
2021/06/01 17:35:48;;;;;;;;;;;21.70;59.20;;;;;;5041699;28;19977;-71
2021/06/01 17:38:14;;;;;;;;;;;21.70;58.90;;;;;;5044992;28;19968;-71
2021/06/01 17:40:41;;;;;;;;;;;21.70;58.90;;;;;;5043043;28;19968;-72
2021/06/01 17:43:10;;;;;;;;;;;21.70;59.10;;;;;;5034596;28;21278;-72
2021/06/01 17:45:37;;;;;;;;;;;21.70;58.90;;;;;;5040336;28;19961;-71
2021/06/01 17:48:06;;;;;;;;;;;21.70;58.80;;;;;;5041698;28;19960;-70
2021/06/01 17:50:32;;;;;;;;;;;21.60;58.70;;;;;;5039978;28;19956;-74
2021/06/01 17:52:58;;;;;;;;;;;21.70;58.70;;;;;;5041177;28;19961;-71
2021/06/01 17:55:25;;;;;;;;;;;21.70;58.80;;;;;;5035472;28;19979;-71
2021/06/01 17:57:51;;;;;;;;;;;21.70;58.60;;;;;;5044393;28;19963;-74
2021/06/01 18:00:20;;;;;;;;;;;21.60;58.90;;;;;;5036604;28;19963;-72
2021/06/01 18:02:48;;;;;;;;;;;21.60;58.90;;;;;;5044034;28;19957;-70
2021/06/01 18:05:14;;;;;;;;;;;21.70;58.50;;;;;;5034199;28;20457;-74
2021/06/01 18:07:44;;;;;;;;;;;21.70;58.50;;;;;;5043523;28;20374;-71
2021/06/01 18:13:30;;;;;;;;;;;21.70;58.30;;;;;;5000263;28;19961;-71
2021/06/01 18:35:02;;;;;;;;;;;21.60;58.60;;;;;;5045548;28;19954;-72
2021/06/01 18:52:38;;;;;;;;;;;21.60;57.30;;;;;;5004502;28;19966;-71
2021/06/01 19:25:40;;;;;;;;;;;21.50;56.40;;;;;;5038679;28;19965;-70
2021/06/01 19:28:23;;;;;;;;;;;21.40;56.40;;;;;;5042961;28;20074;-74
2021/06/01 19:50:05;;;;;;;;;;;21.50;56.40;;;;;;5036352;28;20000;-70
2021/06/01 19:52:32;;;;;;;;;;;21.50;56.40;;;;;;5046636;28;19961;-70
2021/06/01 19:55:00;;;;;;;;;;;21.50;56.50;;;;;;5044472;28;19968;-71
2021/06/01 19:57:26;;;;;;;;;;;21.50;56.50;;;;;;5032553;28;20439;-70
2021/06/01 19:59:53;;;;;;;;;;;21.50;56.40;;;;;;5043181;28;19963;-70
2021/06/01 20:02:20;;;;;;;;;;;21.50;56.40;;;;;;5042595;28;20480;-70
2021/06/01 20:04:46;;;;;;;;;;;21.50;56.20;;;;;;5044004;28;19984;-70
2021/06/01 20:07:12;;;;;;;;;;;21.50;56.40;;;;;;5042806;28;19968;-71
2021/06/01 20:09:38;;;;;;;;;;;21.50;56.40;;;;;;5043679;28;20842;-73
2021/06/01 20:12:08;;;;;;;;;;;21.50;56.40;;;;;;5042539;28;19968;-73
2021/06/01 20:14:34;;;;;;;;;;;21.50;56.40;;;;;;5043788;28;19962;-71
2021/06/01 20:17:00;;;;;;;;;;;21.50;56.40;;;;;;5045664;28;19966;-71
2021/06/01 20:19:26;;;;;;;;;;;21.50;56.40;;;;;;5037010;28;20606;-73
2021/06/01 20:21:52;;;;;;;;;;;21.40;56.40;;;;;;5043342;28;19970;-71
2021/06/01 20:24:18;;;;;;;;;;;21.50;56.30;;;;;;5041133;28;19963;-71